createdAt,value
2023-04-13T00:00:35.550Z,5.29
2023-04-13T00:03:04.346Z,5.31
2023-04-13T00:05:31.452Z,5.25
2023-04-13T00:08:03.480Z,5.19
2023-04-13T00:10:36.818Z,5.16
2023-04-13T00:13:05.311Z,5.08
2023-04-13T00:15:34.754Z,4.98
2023-04-13T00:18:01.703Z,5.01
2023-04-13T00:20:29.001Z,5.10
2023-04-13T00:22:56.177Z,5.10
2023-04-13T00:25:22.833Z,5.10
2023-04-13T00:27:50.360Z,5.04
2023-04-13T00:30:18.024Z,4.95
2023-04-13T00:32:45.497Z,4.99
2023-04-13T00:35:15.672Z,5.02
2023-04-13T00:37:47.155Z,5.03
2023-04-13T00:40:16.557Z,4.96
2023-04-13T00:42:46.764Z,4.90
2023-04-13T00:45:13.743Z,4.88
2023-04-13T00:47:43.459Z,4.92
2023-04-13T00:50:10.264Z,4.98
2023-04-13T00:52:40.164Z,4.96
2023-04-13T00:55:07.797Z,4.91
2023-04-13T00:57:35.220Z,4.92
2023-04-13T01:00:07.876Z,4.84
2023-04-13T01:02:34.477Z,4.86
2023-04-13T01:05:03.157Z,4.91
2023-04-13T01:07:47.246Z,4.88
2023-04-13T01:10:43.541Z,4.77
2023-04-13T01:13:20.687Z,4.79
2023-04-13T01:16:04.278Z,4.81
2023-04-13T01:18:33.337Z,4.75
2023-04-13T01:21:00.203Z,4.71
2023-04-13T01:23:56.725Z,4.72
2023-04-13T01:26:23.961Z,4.76
2023-04-13T01:28:51.400Z,4.67
2023-04-13T01:31:18.047Z,4.73
2023-04-13T01:33:46.863Z,4.75
2023-04-13T01:36:14.494Z,4.70
2023-04-13T01:38:41.141Z,4.64
2023-04-13T01:41:08.699Z,4.58
2023-04-13T01:43:35.830Z,4.64
2023-04-13T01:46:10.174Z,4.63
2023-04-13T01:48:48.409Z,4.57
2023-04-13T01:51:24.507Z,4.57
2023-04-13T01:54:12.898Z,4.59
2023-04-13T01:56:40.096Z,4.56
2023-04-13T01:59:06.662Z,4.51
2023-04-13T02:01:33.197Z,4.51
2023-04-13T02:04:00.673Z,4.48
2023-04-13T02:06:27.521Z,4.44
2023-04-13T02:08:54.429Z,4.47
2023-04-13T02:11:22.073Z,4.40
2023-04-13T02:13:48.610Z,4.41
2023-04-13T02:16:15.821Z,4.47
2023-04-13T02:18:42.414Z,4.44
2023-04-13T02:21:09.669Z,4.49
2023-04-13T02:23:37.102Z,4.48
2023-04-13T02:26:06.809Z,4.46
2023-04-13T02:28:33.408Z,4.43
2023-04-13T02:31:00.185Z,4.38
2023-04-13T02:33:31.645Z,4.47
2023-04-13T02:35:58.986Z,4.76
2023-04-13T02:38:26.658Z,5.08
2023-04-13T02:40:57.255Z,5.25
2023-04-13T02:43:23.788Z,5.11
2023-04-13T02:45:50.292Z,5.03
2023-04-13T02:48:16.861Z,4.86
2023-04-13T02:50:43.300Z,4.86
2023-04-13T02:53:09.785Z,5.01
2023-04-13T02:55:36.629Z,4.92
2023-04-13T02:58:04.584Z,4.74
2023-04-13T03:00:32.697Z,4.67
2023-04-13T03:02:59.454Z,4.55
2023-04-13T03:05:26.731Z,4.52
2023-04-13T03:07:53.232Z,4.53
2023-04-13T03:10:19.848Z,4.54
2023-04-13T03:12:46.318Z,4.55
2023-04-13T03:15:13.090Z,4.52
2023-04-13T03:17:41.501Z,4.46
2023-04-13T03:20:16.929Z,4.48
2023-04-13T03:22:45.381Z,4.48
2023-04-13T03:25:12.546Z,4.48
2023-04-13T03:27:39.149Z,4.39
2023-04-13T03:30:06.406Z,4.37
2023-04-13T03:32:32.899Z,4.46
2023-04-13T03:34:59.425Z,4.48
2023-04-13T03:37:30.212Z,4.46
2023-04-13T03:39:57.927Z,4.64
2023-04-13T03:42:24.404Z,4.57
2023-04-13T03:44:51.166Z,4.48
2023-04-13T03:47:17.816Z,4.41
2023-04-13T03:49:44.295Z,4.41
2023-04-13T03:52:10.772Z,4.41
2023-04-13T03:54:37.295Z,4.45
2023-04-13T03:57:04.877Z,4.57
2023-04-13T03:59:31.568Z,4.58
2023-04-13T04:01:58.455Z,4.70
2023-04-13T04:04:25.361Z,4.76
2023-04-13T04:06:52.101Z,4.80
2023-04-13T04:09:18.637Z,4.72
2023-04-13T04:11:45.719Z,4.69
2023-04-13T04:14:12.203Z,4.81
2023-04-13T04:16:38.762Z,4.78
2023-04-13T04:19:05.282Z,4.80
2023-04-13T04:21:36.078Z,4.90
2023-04-13T04:24:06.354Z,5.03
2023-04-13T04:26:33.298Z,5.16
2023-04-13T04:29:05.039Z,5.41
2023-04-13T04:31:36.675Z,5.47
2023-04-13T04:34:05.112Z,5.51
2023-04-13T04:36:31.614Z,5.54
2023-04-13T04:39:03.182Z,5.61
2023-04-13T04:41:31.321Z,5.66
2023-04-13T04:44:03.561Z,5.64
2023-04-13T04:46:30.132Z,5.70
2023-04-13T04:49:00.853Z,5.79
2023-04-13T04:51:28.187Z,5.84
2023-04-13T04:53:54.843Z,5.96
2023-04-13T04:56:21.756Z,6.13
2023-04-13T04:58:48.610Z,6.32
2023-04-13T05:01:15.260Z,6.61
2023-04-13T05:03:42.218Z,6.73
2023-04-13T05:06:09.424Z,6.56
2023-04-13T05:08:36.020Z,6.49
2023-04-13T05:11:05.969Z,6.54
2023-04-13T05:13:32.687Z,6.66
2023-04-13T05:15:59.355Z,7.03
2023-04-13T05:18:26.156Z,6.82
2023-04-13T05:20:52.935Z,6.87
2023-04-13T05:23:19.588Z,7.13
2023-04-13T05:25:46.237Z,7.05
2023-04-13T05:28:13.146Z,6.84
2023-04-13T05:30:39.724Z,7.04
2023-04-13T05:33:06.674Z,7.23
2023-04-13T05:35:33.708Z,7.48
2023-04-13T05:38:00.786Z,7.75
2023-04-13T05:40:28.987Z,7.67
2023-04-13T05:42:56.393Z,7.50
2023-04-13T05:45:23.026Z,8.09
2023-04-13T05:47:50.322Z,8.33
2023-04-13T05:50:17.212Z,8.36
2023-04-13T05:52:43.663Z,8.24
2023-04-13T05:55:11.753Z,8.10
2023-04-13T05:57:38.412Z,8.09
2023-04-13T06:00:08.038Z,8.13
2023-04-13T06:02:37.151Z,8.32
2023-04-13T06:05:05.131Z,8.36
2023-04-13T06:07:31.795Z,8.44
2023-04-13T06:10:00.767Z,8.52
2023-04-13T06:12:27.805Z,8.57
2023-04-13T06:14:54.499Z,8.67
2023-04-13T06:17:21.286Z,8.81
2023-04-13T06:19:48.507Z,9.04
2023-04-13T06:22:14.980Z,9.19
2023-04-13T06:24:41.835Z,9.27
2023-04-13T06:27:08.583Z,9.38
2023-04-13T06:29:35.972Z,9.70
2023-04-13T06:32:03.353Z,9.74
2023-04-13T06:34:30.743Z,9.88
2023-04-13T06:36:57.630Z,9.76
2023-04-13T06:39:25.545Z,9.72
2023-04-13T06:41:54.053Z,10.00
2023-04-13T06:44:20.864Z,10.25
2023-04-13T06:46:47.746Z,10.30
2023-04-13T06:49:14.545Z,10.65
2023-04-13T06:51:41.032Z,11.55
2023-04-13T06:54:07.648Z,11.81
2023-04-13T06:56:34.319Z,14.60
2023-04-13T06:59:03.432Z,15.97
2023-04-13T07:01:30.524Z,16.92
2023-04-13T07:03:57.478Z,18.87
2023-04-13T07:06:24.342Z,20.82
2023-04-13T07:08:50.988Z,21.96
2023-04-13T07:11:17.696Z,23.33
2023-04-13T07:13:44.343Z,23.42
2023-04-13T07:16:12.441Z,22.86
2023-04-13T07:18:39.041Z,24.46
2023-04-13T07:21:06.149Z,25.42
2023-04-13T07:23:33.794Z,25.12
2023-04-13T07:26:01.483Z,26.13
2023-04-13T07:28:28.400Z,25.72
2023-04-13T07:30:55.110Z,27.59
2023-04-13T07:33:21.841Z,26.98
2023-04-13T07:35:50.414Z,25.60
2023-04-13T07:38:17.150Z,24.71
2023-04-13T07:40:44.003Z,25.15
2023-04-13T07:43:11.060Z,26.94
2023-04-13T07:45:37.761Z,25.36
2023-04-13T07:48:05.931Z,27.12
2023-04-13T07:50:32.952Z,27.22
2023-04-13T07:52:59.666Z,21.70
2023-04-13T07:55:26.940Z,23.21
2023-04-13T07:57:53.542Z,25.98
2023-04-13T08:00:23.046Z,25.00
2023-04-13T08:02:50.413Z,24.66
2023-04-13T08:05:17.930Z,24.80
2023-04-13T08:07:46.996Z,23.23
2023-04-13T08:10:13.551Z,22.62
2023-04-13T08:12:40.154Z,21.81
2023-04-13T08:15:07.688Z,19.74
2023-04-13T08:17:36.032Z,19.56
2023-04-13T08:20:06.169Z,18.60
2023-04-13T08:22:33.073Z,17.36
2023-04-13T08:24:59.763Z,16.86
2023-04-13T08:27:26.452Z,17.38
2023-04-13T08:29:56.995Z,18.11
2023-04-13T08:32:23.743Z,18.78
2023-04-13T08:34:50.538Z,17.73
2023-04-13T08:37:17.405Z,18.10
2023-04-13T08:39:44.037Z,18.04
2023-04-13T08:42:10.695Z,17.92
2023-04-13T08:44:40.238Z,18.15
2023-04-13T08:47:07.519Z,17.54
2023-04-13T08:49:34.798Z,17.50
2023-04-13T08:52:05.563Z,17.01
2023-04-13T08:54:33.070Z,16.76
2023-04-13T08:56:59.746Z,16.53
2023-04-13T08:59:28.433Z,16.34
2023-04-13T09:01:56.157Z,16.41
2023-04-13T09:04:25.408Z,16.82
2023-04-13T09:06:52.818Z,16.95
2023-04-13T09:09:20.708Z,16.19
2023-04-13T09:11:49.932Z,16.46
2023-04-13T09:14:22.221Z,17.29
2023-04-13T09:16:50.076Z,17.28
2023-04-13T09:19:17.952Z,17.37
2023-04-13T09:21:45.466Z,16.95
2023-04-13T09:24:12.904Z,16.50
2023-04-13T09:26:43.857Z,16.91
2023-04-13T09:29:14.287Z,17.56
2023-04-13T09:31:43.546Z,17.20
2023-04-13T09:34:12.139Z,16.96
2023-04-13T09:36:49.584Z,16.89
2023-04-13T09:39:28.566Z,16.92
2023-04-13T09:41:56.105Z,15.94
2023-04-13T09:44:34.681Z,15.95
2023-04-13T09:47:05.876Z,15.52
2023-04-13T09:49:42.736Z,16.01
2023-04-13T09:52:23.711Z,15.44
2023-04-13T09:54:59.888Z,15.89
2023-04-13T09:57:30.883Z,16.40
2023-04-13T10:00:01.509Z,16.37
2023-04-13T10:02:28.658Z,16.29
2023-04-13T10:04:56.167Z,16.34
2023-04-13T10:07:26.925Z,16.34
2023-04-13T10:09:54.135Z,16.63
2023-04-13T10:12:21.074Z,16.49
2023-04-13T10:14:48.907Z,16.41
2023-04-13T10:17:42.681Z,16.35
2023-04-13T10:20:13.792Z,16.24
2023-04-13T10:22:43.434Z,16.33
2023-04-13T10:25:25.690Z,15.66
2023-04-13T10:28:00.160Z,16.53
2023-04-13T10:30:27.791Z,16.68
2023-04-13T10:33:06.412Z,16.70
2023-04-13T10:35:37.365Z,15.78
2023-04-13T10:38:05.106Z,16.33
2023-04-13T10:40:52.260Z,16.77
2023-04-13T10:43:29.233Z,17.05
2023-04-13T10:46:09.569Z,16.83
2023-04-13T10:48:36.592Z,17.03
2023-04-13T10:51:04.509Z,17.23
2023-04-13T10:53:32.874Z,17.03
2023-04-13T10:56:00.289Z,16.73
2023-04-13T10:58:29.955Z,16.85
2023-04-13T11:00:58.739Z,16.16
2023-04-13T11:03:29.036Z,16.05
2023-04-13T11:05:58.237Z,16.46
2023-04-13T11:08:25.281Z,16.42
2023-04-13T11:10:53.039Z,16.61
2023-04-13T11:13:19.895Z,17.02
2023-04-13T11:15:47.331Z,17.12
2023-04-13T11:18:13.880Z,17.14
2023-04-13T11:20:41.873Z,16.72
2023-04-13T11:23:19.023Z,16.16
2023-04-13T11:25:59.974Z,17.01
2023-04-13T11:28:40.146Z,17.04
2023-04-13T11:31:07.653Z,17.16
2023-04-13T11:33:37.222Z,16.95
2023-04-13T11:36:06.515Z,17.22
2023-04-13T11:38:33.191Z,17.85
2023-04-13T11:41:15.900Z,17.72
2023-04-13T11:43:46.748Z,17.71
2023-04-13T11:46:16.201Z,17.40
2023-04-13T11:48:43.478Z,17.88
2023-04-13T11:51:11.568Z,18.26
2023-04-13T11:53:39.455Z,17.96
2023-04-13T11:56:07.066Z,17.34
2023-04-13T11:58:33.818Z,17.71
2023-04-13T12:01:12.784Z,17.37
2023-04-13T12:03:56.743Z,17.36
2023-04-13T12:06:29.075Z,16.74
2023-04-13T12:09:10.086Z,16.42
2023-04-13T12:11:42.739Z,16.77
2023-04-13T12:14:49.755Z,17.17
2023-04-13T12:19:46.730Z,17.46
2023-04-13T12:22:14.949Z,18.05
2023-04-13T12:24:42.924Z,17.99
2023-04-13T12:27:18.254Z,17.41
2023-04-13T12:29:46.045Z,17.69
2023-04-13T12:32:19.732Z,18.34
2023-04-13T12:34:47.437Z,18.77
2023-04-13T12:37:14.058Z,18.59
2023-04-13T12:39:42.460Z,18.02
2023-04-13T12:42:10.004Z,18.14
2023-04-13T12:44:36.991Z,18.27
2023-04-13T12:47:06.733Z,18.01
2023-04-13T12:49:33.764Z,18.50
2023-04-13T12:52:00.983Z,18.54
2023-04-13T12:54:28.791Z,18.51
2023-04-13T12:56:57.093Z,18.41
2023-04-13T12:59:24.230Z,18.26
2023-04-13T13:01:51.352Z,18.53
2023-04-13T13:04:17.984Z,18.18
2023-04-13T13:06:44.621Z,17.84
2023-04-13T13:09:11.324Z,18.12
2023-04-13T13:11:37.972Z,18.17
2023-04-13T13:14:05.072Z,18.31
2023-04-13T13:16:32.673Z,18.28
2023-04-13T13:18:59.583Z,18.12
2023-04-13T13:21:26.589Z,18.15
2023-04-13T13:23:53.435Z,18.56
2023-04-13T13:26:24.546Z,18.44
2023-04-13T13:28:54.043Z,18.83
2023-04-13T13:31:20.896Z,18.21
2023-04-13T13:33:47.568Z,18.40
2023-04-13T13:36:15.079Z,18.33
2023-04-13T13:38:43.186Z,18.41
2023-04-13T13:41:09.995Z,18.50
2023-04-13T13:43:37.831Z,18.20
2023-04-13T13:46:08.593Z,18.32
2023-04-13T13:48:35.466Z,18.07
2023-04-13T13:51:04.464Z,18.36
2023-04-13T13:53:32.428Z,18.63
2023-04-13T13:55:59.122Z,18.96
2023-04-13T13:58:25.683Z,18.69
2023-04-13T14:00:52.326Z,18.28
2023-04-13T14:03:19.091Z,17.74
2023-04-13T14:05:46.068Z,18.05
2023-04-13T14:08:13.172Z,17.99
2023-04-13T14:10:40.204Z,17.79
2023-04-13T14:13:07.326Z,17.40
2023-04-13T14:15:33.900Z,17.51
2023-04-13T14:18:09.198Z,17.19
2023-04-13T14:20:39.184Z,16.91
2023-04-13T14:23:06.476Z,16.95
2023-04-13T14:25:33.089Z,17.13
2023-04-13T14:28:00.005Z,17.25
2023-04-13T14:30:28.119Z,17.59
2023-04-13T14:32:55.583Z,17.71
2023-04-13T14:35:22.551Z,17.67
2023-04-13T14:37:49.599Z,17.96
2023-04-13T14:40:17.067Z,18.24
2023-04-13T14:42:44.444Z,18.48
2023-04-13T14:45:12.407Z,18.35
2023-04-13T14:47:40.127Z,18.08
2023-04-13T14:50:08.592Z,18.03
2023-04-13T14:52:35.592Z,18.05
2023-04-13T14:55:03.651Z,18.15
2023-04-13T14:57:31.179Z,18.03
2023-04-13T14:59:57.928Z,18.42
2023-04-13T15:02:27.440Z,18.95
2023-04-13T15:04:54.737Z,18.17
2023-04-13T15:07:21.962Z,18.05
2023-04-13T15:09:49.014Z,17.99
2023-04-13T15:12:15.759Z,18.11
2023-04-13T15:14:46.610Z,18.02
2023-04-13T15:17:13.493Z,17.62
2023-04-13T15:19:40.284Z,17.69
2023-04-13T15:22:07.291Z,17.91
2023-04-13T15:24:33.882Z,17.63
2023-04-13T15:27:00.791Z,17.84
2023-04-13T15:29:27.778Z,18.01
2023-04-13T15:31:54.640Z,18.13
2023-04-13T15:34:21.342Z,17.98
2023-04-13T15:36:48.110Z,17.86
2023-04-13T15:39:14.821Z,17.96
2023-04-13T15:41:41.423Z,18.00
2023-04-13T15:44:08.238Z,18.04
2023-04-13T15:46:35.021Z,18.17
2023-04-13T15:49:02.069Z,18.24
2023-04-13T15:51:29.482Z,18.20
2023-04-13T15:53:56.190Z,18.03
2023-04-13T15:56:23.124Z,18.41
2023-04-13T15:58:50.045Z,18.64
2023-04-13T16:01:16.722Z,18.74
2023-04-13T16:03:43.787Z,18.20
2023-04-13T16:06:10.939Z,17.81
2023-04-13T16:08:37.898Z,18.20
2023-04-13T16:11:04.909Z,18.37
2023-04-13T16:13:47.060Z,18.39
2023-04-13T16:16:15.907Z,18.20
2023-04-13T16:18:42.430Z,17.70
2023-04-13T16:21:10.935Z,17.70
2023-04-13T16:23:37.775Z,17.46
2023-04-13T16:26:05.067Z,17.32
2023-04-13T16:28:31.706Z,17.15
2023-04-13T16:30:59.149Z,17.30
2023-04-13T16:33:26.135Z,17.15
2023-04-13T16:35:52.709Z,16.94
2023-04-13T16:38:19.279Z,16.62
2023-04-13T16:40:45.878Z,16.59
2023-04-13T16:43:12.895Z,16.68
2023-04-13T16:45:39.716Z,16.75
2023-04-13T16:48:06.570Z,16.83
2023-04-13T16:50:33.319Z,16.61
2023-04-13T16:53:00.091Z,16.41
2023-04-13T16:55:28.610Z,16.15
2023-04-13T16:57:56.258Z,15.94
2023-04-13T17:00:23.338Z,15.94
2023-04-13T17:02:50.152Z,16.04
2023-04-13T17:05:16.969Z,16.03
2023-04-13T17:07:44.715Z,15.84
2023-04-13T17:10:12.906Z,15.76
2023-04-13T17:12:40.571Z,15.81
2023-04-13T17:15:08.001Z,15.64
2023-04-13T17:17:34.778Z,15.47
2023-04-13T17:20:01.879Z,15.43
2023-04-13T17:22:28.668Z,15.15
2023-04-13T17:24:55.678Z,15.09
2023-04-13T17:27:22.380Z,14.97
2023-04-13T17:29:50.049Z,14.83
2023-04-13T17:32:16.791Z,14.77
2023-04-13T17:34:44.748Z,14.66
2023-04-13T17:37:11.893Z,14.55
2023-04-13T17:39:42.209Z,14.46
2023-04-13T17:42:09.552Z,14.45
2023-04-13T17:44:36.545Z,14.35
2023-04-13T17:47:04.817Z,14.18
2023-04-13T17:49:31.374Z,14.14
2023-04-13T17:51:59.921Z,14.01
2023-04-13T17:54:27.506Z,14.03
2023-04-13T17:56:54.798Z,13.97
2023-04-13T17:59:22.138Z,13.99
2023-04-13T18:01:51.594Z,13.84
2023-04-13T18:04:19.234Z,13.88
2023-04-13T18:06:45.980Z,13.85
2023-04-13T18:09:15.921Z,13.76
2023-04-13T18:11:42.597Z,13.65
2023-04-13T18:14:12.453Z,13.56
2023-04-13T18:16:39.331Z,13.48
2023-04-13T18:19:06.266Z,13.39
2023-04-13T18:21:33.303Z,13.32
2023-04-13T18:24:03.693Z,13.38
2023-04-13T18:26:30.589Z,13.35
2023-04-13T18:28:57.180Z,13.19
2023-04-13T18:31:24.023Z,13.25
2023-04-13T18:33:50.665Z,13.30
2023-04-13T18:36:18.448Z,13.07
2023-04-13T18:38:46.025Z,12.99
2023-04-13T18:41:13.017Z,12.92
2023-04-13T18:43:39.949Z,12.86
2023-04-13T18:46:07.976Z,12.86
2023-04-13T18:48:35.308Z,12.81
2023-04-13T18:51:04.010Z,12.82
2023-04-13T18:53:31.039Z,12.72
2023-04-13T18:55:58.401Z,12.71
2023-04-13T18:58:25.541Z,12.59
2023-04-13T19:00:52.119Z,12.66
2023-04-13T19:03:18.938Z,12.65
2023-04-13T19:05:46.134Z,12.59
2023-04-13T19:08:13.505Z,12.49
2023-04-13T19:10:42.557Z,12.39
2023-04-13T19:13:09.500Z,12.31
2023-04-13T19:15:36.441Z,12.17
2023-04-13T19:18:04.777Z,12.14
2023-04-13T19:20:31.593Z,12.04
2023-04-13T19:22:58.402Z,12.01
2023-04-13T19:25:25.061Z,11.99
2023-04-13T19:27:51.656Z,12.09
2023-04-13T19:30:21.450Z,12.10
2023-04-13T19:32:49.223Z,12.13
2023-04-13T19:35:16.440Z,12.11
2023-04-13T19:37:43.222Z,12.05
2023-04-13T19:40:10.273Z,11.98
2023-04-13T19:42:37.118Z,12.10
2023-04-13T19:45:04.599Z,12.08
2023-04-13T19:47:31.637Z,12.08
2023-04-13T19:49:58.182Z,11.97
2023-04-13T19:52:25.300Z,11.96
2023-04-13T19:54:52.094Z,11.95
2023-04-13T19:57:18.847Z,11.87
2023-04-13T19:59:45.840Z,11.90
2023-04-13T20:02:12.576Z,11.82
2023-04-13T20:04:40.102Z,11.72
2023-04-13T20:07:07.135Z,11.76
2023-04-13T20:09:33.911Z,11.76
2023-04-13T20:12:00.881Z,11.73
2023-04-13T20:14:27.438Z,11.73
2023-04-13T20:16:54.082Z,11.67
2023-04-13T20:19:21.215Z,11.62
2023-04-13T20:21:47.886Z,11.67
2023-04-13T20:24:14.608Z,11.77
2023-04-13T20:26:42.129Z,11.71
2023-04-13T20:29:08.675Z,11.80
2023-04-13T20:31:35.861Z,11.76
2023-04-13T20:34:04.412Z,11.70
2023-04-13T20:36:31.317Z,11.66
2023-04-13T20:38:59.450Z,11.62
2023-04-13T20:41:27.155Z,11.63
2023-04-13T20:43:53.660Z,11.57
2023-04-13T20:46:21.741Z,11.61
2023-04-13T20:48:51.540Z,11.52
2023-04-13T20:51:19.280Z,11.52
2023-04-13T20:53:46.004Z,11.45
2023-04-13T20:56:12.881Z,11.43
2023-04-13T20:58:40.785Z,11.41
2023-04-13T21:01:07.644Z,11.37
2023-04-13T21:03:34.931Z,11.33
2023-04-13T21:06:01.552Z,11.43
2023-04-13T21:08:28.210Z,11.24
2023-04-13T21:10:55.071Z,11.18
2023-04-13T21:13:22.149Z,11.21
2023-04-13T21:15:48.662Z,11.15
2023-04-13T21:18:15.394Z,11.09
2023-04-13T21:20:43.391Z,11.13
2023-04-13T21:23:10.308Z,11.02
2023-04-13T21:25:37.334Z,10.99
2023-04-13T21:28:04.840Z,10.94
2023-04-13T21:30:31.394Z,10.91
2023-04-13T21:32:57.990Z,10.89
2023-04-13T21:35:24.537Z,10.78
2023-04-13T21:37:51.178Z,10.85
2023-04-13T21:40:18.373Z,10.90
2023-04-13T21:42:45.060Z,10.86
2023-04-13T21:45:11.757Z,10.83
2023-04-13T21:47:38.474Z,10.75
2023-04-13T21:50:06.198Z,10.76
2023-04-13T21:52:33.013Z,10.69
2023-04-13T21:54:59.917Z,10.73
2023-04-13T21:57:26.891Z,10.69
2023-04-13T21:59:54.794Z,10.64
2023-04-13T22:02:21.476Z,10.61
2023-04-13T22:04:48.084Z,10.61
2023-04-13T22:07:14.816Z,10.67
2023-04-13T22:09:41.685Z,10.54
2023-04-13T22:12:10.739Z,10.51
2023-04-13T22:14:37.257Z,10.46
2023-04-13T22:17:04.288Z,10.47
2023-04-13T22:19:31.352Z,10.47
2023-04-13T22:21:57.885Z,10.49
2023-04-13T22:24:24.433Z,10.38
2023-04-13T22:26:51.696Z,10.44
2023-04-13T22:29:18.212Z,10.37
2023-04-13T22:31:44.867Z,10.37
2023-04-13T22:34:11.461Z,10.37
2023-04-13T22:36:38.000Z,10.33
2023-04-13T22:39:04.512Z,10.40
2023-04-13T22:41:31.018Z,10.34
2023-04-13T22:43:57.536Z,10.37
2023-04-13T22:46:24.196Z,10.36
2023-04-13T22:48:51.309Z,10.31
2023-04-13T22:51:17.833Z,10.28
2023-04-13T22:53:44.313Z,10.32
2023-04-13T22:56:10.875Z,10.25
2023-04-13T22:58:37.434Z,10.19
2023-04-13T23:01:04.713Z,10.19
2023-04-13T23:03:31.488Z,10.11
2023-04-13T23:05:58.152Z,10.05
2023-04-13T23:08:24.624Z,10.09
2023-04-13T23:10:51.202Z,10.12
2023-04-13T23:13:17.706Z,10.03
2023-04-13T23:15:44.289Z,9.97
2023-04-13T23:18:11.065Z,9.91
2023-04-13T23:20:37.647Z,9.89
2023-04-13T23:23:04.348Z,9.87
2023-04-13T23:25:30.917Z,9.82
2023-04-13T23:27:57.468Z,9.85
2023-04-13T23:30:24.000Z,9.81
2023-04-13T23:32:51.019Z,9.83
2023-04-13T23:35:17.648Z,9.83
2023-04-13T23:37:45.354Z,9.79
2023-04-13T23:40:12.281Z,9.83
2023-04-13T23:42:38.857Z,9.77
2023-04-13T23:45:05.961Z,9.75
2023-04-13T23:47:32.493Z,9.72
2023-04-13T23:49:59.170Z,9.79
2023-04-13T23:52:25.657Z,9.75
2023-04-13T23:54:52.119Z,9.72
2023-04-13T23:57:18.596Z,9.70
2023-04-13T23:59:45.105Z,9.67
